Latest Weather Observations for Norah Head

IDN60901

Issued at 9:41 pm EST Tuesday 24 May 2022 (issued every 10 minutes, with the page automatically refreshed every 10 minutes)

About weather observations | Map of Sydney area stations | Latest observations for Sydney area | Other Formats
Station Details ID: 061366 Name: NORAH HEAD AWS Lat: -33.28 Lon: 151.58 Height: 18.8 m
Data from the previous 72 hours. | See also: Recent months at Norah Head
Date/Time
EST
Temp
°C
App
Temp
°C
Dew
Point
°C
Rel
Hum
%
Delta-T
°C
Wind Press
QNH
hPa
Press
MSL
hPa
Rain since
9am
mm
Dir  Spd
km/h
Gust
km/h
Spd
kts
Gust
kts
24/09:30pm 14.8 14.1 13.2 90 0.9 W 9 15 5 8 1026.5 1026.5 0.4
24/09:00pm 15.6 15.9 13.4 87 1.2 NNW 4 9 2 5 1026.6 1026.6 0.4
24/08:30pm 16.0 14.4 13.8 87 1.2 NNE 15 17 8 9 1026.7 1026.7 0.4
24/08:00pm 16.1 13.9 13.4 84 1.5 NE 17 24 9 13 1026.5 1026.5 0.4
24/07:30pm 16.7 14.0 13.6 82 1.7 ESE 20 26 11 14 1026.3 1026.3 0.4
24/07:00pm 16.9 14.4 14.2 84 1.5 ESE 20 24 11 13 1026.1 1026.1 0.4
24/06:30pm 16.8 13.7 13.5 81 1.9 E 22 30 12 16 1025.9 1025.9 0.4
24/06:00pm 16.5 14.0 13.4 82 1.7 ESE 19 28 10 15 1025.7 1025.7 0.4
24/05:30pm 16.5 14.4 13.6 83 1.6 ESE 17 20 9 11 1025.7 1025.7 0.4
24/05:00pm 16.6 14.2 13.7 83 1.6 ESE 19 22 10 12 1025.6 1025.6 0.4
24/04:30pm 16.4 14.7 13.5 83 1.6 ESE 15 19 8 10 1025.4 1025.4 0.4
24/04:00pm 16.5 13.3 13.0 80 1.9 SE 22 26 12 14 1025.5 1025.5 0.4
24/03:30pm 16.9 14.2 12.8 77 2.3 SE 19 22 10 12 1025.7 1025.7 0.4
24/03:00pm 18.5 16.4 13.6 73 2.8 SE 17 20 9 11 1025.8 1025.8 0.4
24/02:30pm 18.9 17.2 13.5 71 3.1 SSE 15 19 8 10 1025.9 1025.9 0.4
24/02:00pm 19.0 17.4 13.8 72 3.0 SSE 15 19 8 10 1025.7 1025.7 0.4
24/01:30pm 19.0 17.7 14.7 76 2.5 SSE 15 20 8 11 1025.9 1025.9 0.4
24/01:00pm 18.2 16.8 15.6 85 1.5 SSE 17 20 9 11 1026.3 1026.3 0.4
24/12:30pm 17.1 15.0 15.1 88 1.2 SSE 20 26 11 14 1026.6 1026.6 0.4
24/12:00pm 16.1 13.6 14.1 88 1.1 SE 20 32 11 17 1027.1 1027.1 0.4
24/11:30am 17.4 15.6 15.4 88 1.2 S 19 24 10 13 1027.5 1027.5 0.0
24/11:00am 17.0 14.6 15.5 91 0.9 S 22 32 12 17 1027.7 1027.7 0.0
24/10:30am 16.2 13.5 15.6 96 0.4 S 24 32 13 17 1027.9 1027.9 0.0
24/10:00am 16.7 13.3 16.7 100 0.0 SSE 30 35 16 19 1027.9 1027.9 0.0
24/09:30am 16.3 12.1 16.3 100 0.0 S 33 41 18 22 1027.8 1027.8 0.0
24/09:00am 16.1 12.4 16.1 100 0.0 SSE 30 41 16 22 1027.9 1027.9 29.0
24/08:56am 15.9 12.9 15.9 100 0.0 S 26 41 14 22 1027.9 1027.9 29.0
24/08:30am 15.5 15.2 15.5 100 0.0 S 11 17 6 9 1028.0 1028.0 29.0
24/08:00am 14.1 13.3 14.1 100 0.0 WSW 11 17 6 9 1027.7 1027.7 28.8
24/07:30am 13.9 13.1 13.9 100 0.0 WSW 11 17 6 9 1027.6 1027.6 28.4
24/07:00am 14.3 14.0 14.3 100 0.0 WSW 9 17 5 9 1027.6 1027.6 27.2
24/06:30am 13.9 12.7 13.9 100 0.0 WSW 13 20 7 11 1027.3 1027.3 24.6
24/06:00am 13.7 12.4 13.7 100 0.0 WSW 13 19 7 10 1027.0 1027.0 24.2
24/05:30am 13.8 13.3 13.8 100 0.0 W 9 13 5 7 1027.0 1027.0 23.2
24/05:00am 14.5 15.2 14.5 100 0.0 NW 4 11 2 6 1026.8 1026.8 22.2
24/04:30am 14.4 14.7 14.4 100 0.0 NW 6 11 3 6 1026.9 1026.9 19.2
24/04:11am 14.7 13.7 14.7 100 0.0 WSW 13 41 7 22 1026.7 1026.7 16.8
24/04:00am 14.0 13.5 13.8 99 0.1 W 9 13 5 7 1026.5 1026.5 16.8
24/03:30am 14.4 13.6 14.1 98 0.2 WSW 11 15 6 8 1026.5 1026.5 16.8
24/03:00am 15.5 14.8 15.3 99 0.1 SSW 13 19 7 10 1026.7 1026.7 16.8
24/02:30am 15.1 15.1 15.1 100 0.0 SW 9 19 5 10 1027.0 1027.0 16.8
24/02:00am 15.2 15.5 15.0 99 0.1 SW 7 11 4 6 1027.3 1027.3 16.8
24/01:30am 15.0 14.2 15.0 100 0.0 SW 13 19 7 10 1027.6 1027.6 16.6
24/01:00am 14.7 13.4 14.7 100 0.0 WSW 15 22 8 12 1027.6 1027.6 16.6
24/12:30am 14.6 14.3 14.3 98 0.2 SW 9 13 5 7 1027.7 1027.7 16.6
24/12:00am 14.8 14.8 14.2 96 0.3 W 7 11 4 6 1027.5 1027.5 16.6
 
Date/Time
EST
Temp
°C
App
Temp
°C
Dew
Point
°C
Rel
Hum
%
Delta-T
°C
Wind Press
QNH
hPa
Press
MSL
hPa
Rain since
9am
mm
Dir  Spd
km/h
Gust
km/h
Spd
kts
Gust
kts
23/11:30pm 15.8 13.8 15.0 95 0.5 ENE 19 22 10 12 1027.5 1027.5 16.6
23/11:00pm 15.4 14.0 14.4 94 0.6 SSW 15 26 8 14 1027.7 1027.7 16.6
23/10:30pm 15.1 14.5 13.5 90 0.9 W 9 19 5 10 1027.6 1027.6 15.8
23/10:00pm 15.4 15.2 13.6 89 1.0 WSW 7 13 4 7 1027.8 1027.8 15.8
23/09:30pm 15.2 14.3 12.7 85 1.4 WSW 9 15 5 8 1028.0 1028.0 15.8
23/09:00pm 16.8 15.1 13.5 81 1.8 SSE 15 24 8 13 1028.1 1028.1 15.8
23/08:30pm 17.1 15.2 14.2 83 1.7 SSE 17 22 9 12 1027.8 1027.8 15.8
23/08:00pm 17.0 15.4 13.9 82 1.7 SSE 15 20 8 11 1027.8 1027.8 15.8
23/07:30pm 16.7 14.9 13.2 80 2.0 SE 15 20 8 11 1027.7 1027.7 15.8
23/07:00pm 16.6 15.2 13.3 81 1.8 SE 13 19 7 10 1027.7 1027.7 15.8
23/06:30pm 16.2 13.9 13.1 82 1.7 SE 17 22 9 12 1027.5 1027.5 15.8
23/06:00pm 16.4 14.7 13.5 83 1.6 SE 15 19 8 10 1027.3 1027.3 15.8
23/05:30pm 16.9 14.6 14.2 84 1.5 ESE 19 24 10 13 1027.3 1027.3 15.8
23/05:00pm 16.4 14.7 13.5 83 1.6 SE 15 20 8 11 1027.2 1027.2 15.8
23/04:30pm 16.8 14.9 14.1 84 1.5 SE 17 22 9 12 1026.7 1026.7 15.8
23/04:00pm 16.7 13.7 13.8 83 1.6 SSE 22 28 12 15 1026.6 1026.6 15.8
23/03:30pm 16.8 12.8 14.1 84 1.5 SSE 28 33 15 18 1026.6 1026.6 15.8
23/03:00pm 17.2 14.8 14.5 84 1.5 S 20 26 11 14 1026.8 1026.8 15.8
23/02:30pm 17.3 15.2 14.6 84 1.6 S 19 24 10 13 1026.7 1026.7 15.8
23/02:00pm 17.5 15.6 15.8 90 1.0 S 20 28 11 15 1026.7 1026.7 15.8
23/01:30pm 17.2 15.7 16.4 95 0.5 S 19 24 10 13 1026.7 1026.7 15.8
23/01:00pm 16.8 16.3 16.8 100 0.0 S 15 20 8 11 1026.9 1026.9 15.8
23/12:30pm 16.0 14.8 16.0 100 0.0 SSW 17 22 9 12 1027.2 1027.2 15.8
23/12:00pm 15.1 15.1 15.1 100 0.0 SW 9 15 5 8 1027.6 1027.6 15.8
23/11:30am 14.8 14.6 14.8 100 0.0 W 9 15 5 8 1027.9 1027.9 15.6
23/11:00am 14.5 13.9 14.5 100 0.0 WSW 11 15 6 8 1028.2 1028.2 15.6
23/10:30am 13.9 13.1 13.9 100 0.0 W 11 17 6 9 1028.7 1028.7 15.0
23/10:00am 13.9 14.0 13.9 100 0.0 W 6 9 3 5 1029.0 1029.0 13.4
23/09:30am 13.9 14.4 13.9 100 0.0 WNW 4 7 2 4 1028.9 1028.9 13.0
23/09:00am 13.7 13.7 13.7 100 0.0 WNW 6 11 3 6 1028.9 1028.9 36.2
23/08:30am 13.7 12.4 13.7 100 0.0 WSW 13 17 7 9 1027.7 1027.7 34.2
23/08:00am 13.7 12.0 13.5 99 0.1 W 15 22 8 12 1027.5 1027.5 34.2
23/07:30am 13.8 12.1 13.6 99 0.1 WSW 15 19 8 10 1027.3 1027.3 32.6
23/07:00am 14.4 13.2 14.1 98 0.2 WSW 13 19 7 10 1027.2 1027.2 32.6
23/06:30am 14.4 12.9 14.2 99 0.1 WSW 15 19 8 10 1027.0 1027.0 32.6
23/06:00am 14.2 12.6 14.0 99 0.1 WSW 15 20 8 11 1026.8 1026.8 32.6
23/05:30am 14.2 12.6 14.0 99 0.1 WSW 15 20 8 11 1026.6 1026.6 32.6
23/05:00am 14.2 12.7 14.2 100 0.0 WSW 15 20 8 11 1026.4 1026.4 32.6
23/04:30am 14.0 12.4 14.0 100 0.0 SW 15 20 8 11 1026.5 1026.5 32.6
23/04:00am 13.9 13.1 13.9 100 0.0 SW 11 17 6 9 1026.5 1026.5 32.6
23/03:30am 13.6 12.3 13.6 100 0.0 WSW 13 17 7 9 1026.4 1026.4 32.6
23/03:00am 14.2 13.8 14.2 100 0.0 SW 9 17 5 9 1026.6 1026.6 32.4
23/02:30am 13.7 12.8 13.7 100 0.0 WSW 11 17 6 9 1026.6 1026.6 32.4
23/02:00am 13.8 12.5 13.8 100 0.0 WSW 13 17 7 9 1026.6 1026.6 32.4
23/01:30am 13.6 12.3 13.6 100 0.0 WSW 13 17 7 9 1026.9 1026.9 32.2
23/01:00am 14.1 13.3 14.1 100 0.0 SW 11 17 6 9 1027.3 1027.3 31.6
23/12:30am 13.6 13.0 13.6 100 0.0 SW 9 13 5 7 1027.6 1027.6 30.4
23/12:00am 13.6 12.7 13.6 100 0.0 WSW 11 15 6 8 1027.7 1027.7 28.8
 
Date/Time
EST
Temp
°C
App
Temp
°C
Dew
Point
°C
Rel
Hum
%
Delta-T
°C
Wind Press
QNH
hPa
Press
MSL
hPa
Rain since
9am
mm
Dir  Spd
km/h
Gust
km/h
Spd
kts
Gust
kts
22/11:30pm 14.1 14.3 14.1 100 0.0 NW 6 11 3 6 1027.9 1027.9 25.0
22/11:00pm 14.0 12.8 14.0 100 0.0 W 13 19 7 10 1027.5 1027.5 15.2
22/10:30pm 14.0 13.9 14.0 100 0.0 W 7 15 4 8 1027.5 1027.5 15.0
22/10:00pm 14.1 13.7 14.1 100 0.0 NW 9 19 5 10 1027.7 1027.7 10.4
22/09:30pm 13.9 12.7 13.9 100 0.0 W 13 17 7 9 1027.9 1027.9 9.4
22/09:00pm 14.3 13.9 14.1 99 0.1 W 9 15 5 8 1027.8 1027.8 8.6
22/08:30pm 15.0 14.5 14.8 99 0.1 S 11 22 6 12 1027.7 1027.7 8.2
22/08:00pm 14.6 13.5 14.3 98 0.2 WSW 13 17 7 9 1027.3 1027.3 8.2
22/07:30pm 14.3 13.1 14.0 98 0.2 WSW 13 19 7 10 1027.3 1027.3 8.2
22/07:00pm 14.0 12.7 13.7 98 0.2 WSW 13 15 7 8 1027.4 1027.4 8.2
22/06:30pm 13.9 12.5 13.4 97 0.3 WSW 13 17 7 9 1027.3 1027.3 8.2
22/06:00pm 13.7 12.5 12.9 95 0.4 W 11 13 6 7 1027.0 1027.0 8.2
22/05:30pm 13.6 13.3 12.8 95 0.4 WNW 6 9 3 5 1026.7 1026.7 8.2
22/05:00pm 13.8 14.0 12.9 94 0.5 SW 4 7 2 4 1027.2 1027.2 7.2
22/04:30pm 13.6 12.7 12.5 93 0.6 WSW 9 13 5 7 1027.1 1027.1 5.0
22/04:00pm 14.9 14.0 13.6 92 0.7 NNE 11 32 6 17 1026.9 1026.9 2.6
22/03:30pm 14.5 14.3 12.9 90 0.9 NW 6 9 3 5 1026.4 1026.4 2.6
22/03:00pm 14.7 14.4 12.6 87 1.1 E 6 9 3 5 1026.8 1026.8 2.0
22/02:30pm 15.8 11.3 12.7 82 1.7 ENE 28 37 15 20 1026.2 1026.2 0.8
22/02:00pm 18.2 13.9 14.3 78 2.2 SE 30 37 16 20 1026.0 1026.0 0.0
22/01:30pm 18.6 14.1 14.9 79 2.2 SSE 32 37 17 20 1025.6 1025.6 0.0
22/01:00pm 18.5 15.2 15.0 80 2.0 S 26 33 14 18 1025.6 1025.6 0.0
22/12:30pm 18.8 14.2 14.7 77 2.4 S 32 39 17 21 1026.1 1026.1 0.0
22/12:00pm 18.9 15.1 14.8 77 2.4 SSE 28 35 15 19 1026.4 1026.4 0.0
22/11:30am 18.8 16.4 14.3 75 2.6 SE 20 24 11 13 1027.2 1027.2 0.0
22/11:00am 18.6 16.2 13.9 74 2.7 SE 19 24 10 13 1027.6 1027.6 0.0
22/10:30am 18.6 15.6 14.7 78 2.3 ESE 24 32 13 17 1027.8 1027.8 0.0
22/10:00am 18.4 14.2 14.7 79 2.1 SE 30 37 16 20 1027.7 1027.7 0.0
22/09:30am 18.3 14.0 14.4 78 2.2 SE 30 39 16 21 1027.7 1027.7 0.0
22/09:00am 18.6 15.6 14.7 78 2.3 SE 24 30 13 16 1027.8 1027.8 0.0
22/08:30am 18.4 15.2 15.3 82 1.8 SSE 26 32 14 17 1027.2 1027.2 0.0
22/08:00am 17.5 13.3 14.6 83 1.7 SSE 30 35 16 19 1027.2 1027.2 0.0
22/07:30am 17.2 12.4 14.7 85 1.4 SSE 33 43 18 23 1027.1 1027.1 0.0
22/07:00am 17.6 14.0 15.2 86 1.4 SSE 28 33 15 18 1027.1 1027.1 0.0
22/06:30am 17.0 12.7 14.5 85 1.4 SSE 30 33 16 18 1026.9 1026.9 0.0
22/06:00am 17.3 14.2 14.4 83 1.7 SE 24 30 13 16 1026.8 1026.8 0.0
22/05:30am 16.4 12.6 14.6 89 1.0 SSE 28 35 15 19 1026.5 1026.5 0.0
22/05:00am 16.9 11.8 15.9 94 0.6 SSE 37 46 20 25 1026.3 1026.3 0.0
22/04:53am 16.6 13.2 15.8 95 0.5 SSE 28 39 15 21 1026.4 1026.4 0.0
22/04:30am 15.1 15.4 14.5 96 0.3 SW 6 13 3 7 1026.8 1026.8 0.0
22/04:00am 14.3 12.6 13.7 96 0.3 W 15 20 8 11 1026.9 1026.9 0.0
22/03:30am 14.4 13.0 13.4 94 0.6 WSW 13 19 7 10 1027.0 1027.0 0.0
22/03:00am 14.4 12.5 13.0 91 0.8 W 15 19 8 10 1027.2 1027.2 0.0
22/02:30am 14.7 13.0 12.4 86 1.3 W 13 17 7 9 1027.4 1027.4 0.0
22/02:00am 15.4 13.6 12.0 80 1.8 W 13 19 7 10 1027.8 1027.8 0.0
22/01:30am 16.1 15.6 11.9 76 2.3 SW 6 13 3 7 1028.0 1028.0 0.0
22/01:00am 17.7 14.8 12.2 70 3.0 SE 19 28 10 15 1028.1 1028.1 0.0
22/12:30am 17.9 14.6 11.7 67 3.4 SSE 20 26 11 14 1028.3 1028.3 0.0
22/12:00am 18.2 15.1 12.2 68 3.3 SE 20 28 11 15 1028.5 1028.5 0.0
 
Date/Time
EST
Temp
°C
App
Temp
°C
Dew
Point
°C
Rel
Hum
%
Delta-T
°C
Wind Press
QNH
hPa
Press
MSL
hPa
Rain since
9am
mm
Dir  Spd
km/h
Gust
km/h
Spd
kts
Gust
kts
21/11:30pm 18.2 14.7 12.2 68 3.3 SE 22 28 12 15 1028.4 1028.4 0.0
21/11:00pm 18.4 14.3 12.6 69 3.2 SE 26 32 14 17 1028.3 1028.3 0.0
21/10:30pm 18.3 13.8 12.5 69 3.2 SE 28 35 15 19 1028.5 1028.5 0.0
21/10:00pm 18.3 13.3 12.3 68 3.3 SE 30 35 16 19 1028.7 1028.7 0.0

Latest Capital City Observations: Canberra | Sydney | Melbourne | Brisbane | Adelaide | Perth | Hobart | Darwin

Other formats

Comma delimited format used in spreadsheet applications
http://www.bom.gov.au/fwo/IDN60901/IDN60901.95770.axf

JavaScript Object Notation format (JSON) in row-major order
http://www.bom.gov.au/fwo/IDN60901/IDN60901.95770.json

Data quality

Most of these data are generated automatically and are frequently updated. Quality checks on data are not normally performed. It is possible for incorrect values to appear. Refer to information at About Latest Weather Observations and please check the disclaimer before using these data.